TAF and METAR

Decoding for American and Canadian METARs and TAFs is not fully implemented.

Could not understand the following METAR

PAMR 192053Z 04005KT 10SM CLR 05/M01 A2952 RMK AO2 SLP998 60000 T00501011 51010
No TAF available for Merrill Field
Merrill Field in United States of America at 41m

Latest 5 airports